sensor_id;sensor_type;location;lat;lon;timestamp;pressure;altitude;pressure_sealevel;temperature;humidity
60089;BME280;45961;53.574;55.878;2022-12-07T00:00:43;102815.66;;;-24.83;79.73
60089;BME280;45961;53.574;55.878;2022-12-07T00:01:46;102813.91;;;-24.92;79.75
60089;BME280;45961;53.574;55.878;2022-12-07T00:02:47;102813.28;;;-24.87;79.79
60089;BME280;45961;53.574;55.878;2022-12-07T00:03:48;102812.91;;;-24.85;79.73
60089;BME280;45961;53.574;55.878;2022-12-07T00:04:49;102821.16;;;-24.84;79.83
60089;BME280;45961;53.574;55.878;2022-12-07T00:05:50;102812.69;;;-24.90;80.04
60089;BME280;45961;53.574;55.878;2022-12-07T00:06:51;102818.53;;;-24.94;79.96
60089;BME280;45961;53.574;55.878;2022-12-07T00:07:53;102814.88;;;-24.96;80.05
60089;BME280;45961;53.574;55.878;2022-12-07T00:08:53;102812.00;;;-24.85;80.04
60089;BME280;45961;53.574;55.878;2022-12-07T00:09:54;102809.56;;;-24.85;79.94
60089;BME280;45961;53.574;55.878;2022-12-07T00:10:59;102809.94;;;-24.92;79.97
60089;BME280;45961;53.574;55.878;2022-12-07T00:12:00;102795.97;;;-24.97;79.87
60089;BME280;45961;53.574;55.878;2022-12-07T00:13:01;102808.94;;;-24.84;79.77
60089;BME280;45961;53.574;55.878;2022-12-07T00:14:07;102803.72;;;-24.82;79.76
60089;BME280;45961;53.574;55.878;2022-12-07T00:15:10;102808.34;;;-24.83;79.93
60089;BME280;45961;53.574;55.878;2022-12-07T00:16:15;102804.56;;;-24.77;80.17
60089;BME280;45961;53.574;55.878;2022-12-07T00:17:16;102807.13;;;-24.85;79.78
60089;BME280;45961;53.574;55.878;2022-12-07T00:18:17;102805.25;;;-24.82;79.67
60089;BME280;45961;53.574;55.878;2022-12-07T00:19:18;102805.91;;;-24.83;79.69
60089;BME280;45961;53.574;55.878;2022-12-07T00:20:19;102805.31;;;-24.86;79.89
60089;BME280;45961;53.574;55.878;2022-12-07T00:21:21;102809.66;;;-24.93;79.70
60089;BME280;45961;53.574;55.878;2022-12-07T00:22:23;102813.00;;;-24.93;79.71
60089;BME280;45961;53.574;55.878;2022-12-07T00:23:23;102813.66;;;-24.94;79.88
60089;BME280;45961;53.574;55.878;2022-12-07T00:24:25;102814.94;;;-25.00;79.60
60089;BME280;45961;53.574;55.878;2022-12-07T00:25:25;102819.22;;;-24.99;79.75
60089;BME280;45961;53.574;55.878;2022-12-07T00:26:29;102815.22;;;-24.99;79.72
60089;BME280;45961;53.574;55.878;2022-12-07T00:27:32;102815.91;;;-25.04;79.61
60089;BME280;45961;53.574;55.878;2022-12-07T00:28:32;102822.16;;;-25.14;79.88
60089;BME280;45961;53.574;55.878;2022-12-07T00:29:34;102820.81;;;-25.04;79.89
60089;BME280;45961;53.574;55.878;2022-12-07T00:30:35;102814.59;;;-24.98;79.72
60089;BME280;45961;53.574;55.878;2022-12-07T00:31:37;102810.31;;;-24.94;80.01
60089;BME280;45961;53.574;55.878;2022-12-07T00:32:41;102814.50;;;-24.89;79.83
60089;BME280;45961;53.574;55.878;2022-12-07T00:33:42;102811.63;;;-24.79;79.89
60089;BME280;45961;53.574;55.878;2022-12-07T00:34:43;102812.75;;;-24.73;79.68
60089;BME280;45961;53.574;55.878;2022-12-07T00:35:44;102810.69;;;-24.75;80.00
60089;BME280;45961;53.574;55.878;2022-12-07T00:36:45;102813.72;;;-24.76;79.91
60089;BME280;45961;53.574;55.878;2022-12-07T00:37:45;102809.66;;;-24.67;79.91
60089;BME280;45961;53.574;55.878;2022-12-07T00:38:49;102815.22;;;-24.73;79.71
60089;BME280;45961;53.574;55.878;2022-12-07T00:39:50;102816.13;;;-24.72;79.76
60089;BME280;45961;53.574;55.878;2022-12-07T00:40:55;102808.22;;;-24.75;79.87
60089;BME280;45961;53.574;55.878;2022-12-07T00:41:56;102801.59;;;-24.84;79.48
60089;BME280;45961;53.574;55.878;2022-12-07T00:42:57;102804.56;;;-24.77;79.67
60089;BME280;45961;53.574;55.878;2022-12-07T00:43:58;102809.81;;;-24.80;79.48
60089;BME280;45961;53.574;55.878;2022-12-07T00:44:59;102804.00;;;-24.80;79.67
60089;BME280;45961;53.574;55.878;2022-12-07T00:45:59;102801.53;;;-24.80;79.59
60089;BME280;45961;53.574;55.878;2022-12-07T00:47:00;102803.41;;;-24.79;79.85
60089;BME280;45961;53.574;55.878;2022-12-07T00:48:01;102804.94;;;-24.80;79.51
60089;BME280;45961;53.574;55.878;2022-12-07T00:49:02;102804.69;;;-24.85;79.57
60089;BME280;45961;53.574;55.878;2022-12-07T00:50:04;102806.91;;;-24.91;79.67
60089;BME280;45961;53.574;55.878;2022-12-07T00:51:05;102811.09;;;-24.86;79.68
60089;BME280;45961;53.574;55.878;2022-12-07T00:52:06;102805.31;;;-24.86;79.63
60089;BME280;45961;53.574;55.878;2022-12-07T00:53:07;102815.38;;;-24.85;79.67
60089;BME280;45961;53.574;55.878;2022-12-07T00:54:08;102806.78;;;-24.83;79.48
60089;BME280;45961;53.574;55.878;2022-12-07T00:55:09;102806.50;;;-24.84;79.65
60089;BME280;45961;53.574;55.878;2022-12-07T00:56:19;102802.50;;;-24.84;79.79
60089;BME280;45961;53.574;55.878;2022-12-07T00:57:20;102802.72;;;-24.74;79.81
60089;BME280;45961;53.574;55.878;2022-12-07T00:58:21;102805.47;;;-24.77;79.83
60089;BME280;45961;53.574;55.878;2022-12-07T00:59:22;102799.75;;;-24.81;79.60
60089;BME280;45961;53.574;55.878;2022-12-07T01:00:22;102807.59;;;-24.74;79.76
60089;BME280;45961;53.574;55.878;2022-12-07T01:01:25;102806.63;;;-24.71;79.80
60089;BME280;45961;53.574;55.878;2022-12-07T01:02:26;102799.56;;;-24.69;79.76
60089;BME280;45961;53.574;55.878;2022-12-07T01:03:28;102804.53;;;-24.73;79.74
60089;BME280;45961;53.574;55.878;2022-12-07T01:04:29;102798.72;;;-24.74;79.98
60089;BME280;45961;53.574;55.878;2022-12-07T01:05:30;102806.06;;;-24.74;79.85
60089;BME280;45961;53.574;55.878;2022-12-07T01:06:31;102792.81;;;-24.66;79.90
60089;BME280;45961;53.574;55.878;2022-12-07T01:07:32;102796.13;;;-24.83;79.66
60089;BME280;45961;53.574;55.878;2022-12-07T01:08:32;102799.06;;;-24.76;79.86
60089;BME280;45961;53.574;55.878;2022-12-07T01:09:35;102791.16;;;-24.79;79.86
60089;BME280;45961;53.574;55.878;2022-12-07T01:10:35;102796.00;;;-24.75;79.90
60089;BME280;45961;53.574;55.878;2022-12-07T01:11:36;102806.38;;;-24.76;79.78
60089;BME280;45961;53.574;55.878;2022-12-07T01:12:37;102798.72;;;-24.74;79.55
60089;BME280;45961;53.574;55.878;2022-12-07T01:13:38;102806.50;;;-24.84;79.69
60089;BME280;45961;53.574;55.878;2022-12-07T01:14:41;102810.78;;;-24.83;79.40
60089;BME280;45961;53.574;55.878;2022-12-07T01:15:43;102806.44;;;-24.80;79.36
60089;BME280;45961;53.574;55.878;2022-12-07T01:16:44;102811.97;;;-24.81;79.41
60089;BME280;45961;53.574;55.878;2022-12-07T01:17:45;102811.06;;;-24.82;79.54
60089;BME280;45961;53.574;55.878;2022-12-07T01:18:47;102794.84;;;-24.81;79.43
60089;BME280;45961;53.574;55.878;2022-12-07T01:19:48;102812.16;;;-24.72;79.73
60089;BME280;45961;53.574;55.878;2022-12-07T01:21:03;102810.38;;;-24.77;79.40
60089;BME280;45961;53.574;55.878;2022-12-07T01:22:04;102813.16;;;-24.79;79.44
60089;BME280;45961;53.574;55.878;2022-12-07T01:23:04;102806.91;;;-24.69;79.68
60089;BME280;45961;53.574;55.878;2022-12-07T01:24:09;102783.59;;;-24.85;79.55
60089;BME280;45961;53.574;55.878;2022-12-07T01:25:11;102815.56;;;-24.75;79.75
60089;BME280;45961;53.574;55.878;2022-12-07T01:26:16;102811.28;;;-24.76;79.61
60089;BME280;45961;53.574;55.878;2022-12-07T01:27:17;102815.22;;;-24.73;79.68
60089;BME280;45961;53.574;55.878;2022-12-07T01:28:18;102805.44;;;-24.73;79.48
60089;BME280;45961;53.574;55.878;2022-12-07T01:29:19;102813.06;;;-24.71;79.62
60089;BME280;45961;53.574;55.878;2022-12-07T01:30:20;102807.41;;;-24.84;79.46
60089;BME280;45961;53.574;55.878;2022-12-07T01:31:21;102807.03;;;-24.77;79.70
60089;BME280;45961;53.574;55.878;2022-12-07T01:32:22;102805.22;;;-24.78;79.63
60089;BME280;45961;53.574;55.878;2022-12-07T01:33:23;102807.03;;;-24.77;79.54
60089;BME280;45961;53.574;55.878;2022-12-07T01:34:24;102804.53;;;-24.73;79.45
60089;BME280;45961;53.574;55.878;2022-12-07T01:35:25;102803.66;;;-24.78;79.40
60089;BME280;45961;53.574;55.878;2022-12-07T01:36:29;102794.91;;;-24.85;79.51
60089;BME280;45961;53.574;55.878;2022-12-07T01:37:37;102805.06;;;-24.92;79.48
60089;BME280;45961;53.574;55.878;2022-12-07T01:38:38;102810.47;;;-24.85;79.63
60089;BME280;45961;53.574;55.878;2022-12-07T01:39:39;102803.50;;;-24.87;79.34
60089;BME280;45961;53.574;55.878;2022-12-07T01:40:41;102809.47;;;-24.77;79.62
60089;BME280;45961;53.574;55.878;2022-12-07T01:41:42;102806.84;;;-24.65;79.46
60089;BME280;45961;53.574;55.878;2022-12-07T01:42:44;102794.16;;;-24.76;79.38
60089;BME280;45961;53.574;55.878;2022-12-07T01:46:31;102809.13;;;-24.75;79.47
60089;BME280;45961;53.574;55.878;2022-12-07T01:47:32;102807.03;;;-24.77;79.61
60089;BME280;45961;53.574;55.878;2022-12-07T01:48:38;102817.06;;;-24.72;79.47
60089;BME280;45961;53.574;55.878;2022-12-07T01:49:48;102810.41;;;-24.81;79.25
60089;BME280;45961;53.574;55.878;2022-12-07T01:50:50;102801.53;;;-24.80;79.63
60089;BME280;45961;53.574;55.878;2022-12-07T01:51:58;102803.34;;;-24.75;79.54
60089;BME280;45961;53.574;55.878;2022-12-07T01:53:02;102802.72;;;-24.74;79.48
60089;BME280;45961;53.574;55.878;2022-12-07T01:54:05;102802.06;;;-24.73;79.49
60089;BME280;45961;53.574;55.878;2022-12-07T01:55:09;102788.19;;;-24.86;79.42
60089;BME280;45961;53.574;55.878;2022-12-07T01:56:17;102802.13;;;-24.77;79.38
60089;BME280;45961;53.574;55.878;2022-12-07T01:57:20;102808.84;;;-24.76;79.88
60089;BME280;45961;53.574;55.878;2022-12-07T01:58:22;102804.72;;;-24.63;79.51
60089;BME280;45961;53.574;55.878;2022-12-07T01:59:25;102819.66;;;-24.62;79.50
60089;BME280;45961;53.574;55.878;2022-12-07T02:00:26;102802.50;;;-24.58;79.59
60089;BME280;45961;53.574;55.878;2022-12-07T02:01:27;102808.94;;;-24.58;79.62
60089;BME280;45961;53.574;55.878;2022-12-07T02:02:33;102808.28;;;-24.57;79.52
60089;BME280;45961;53.574;55.878;2022-12-07T02:03:38;102807.16;;;-24.63;79.67
60089;BME280;45961;53.574;55.878;2022-12-07T02:04:39;102807.16;;;-24.63;79.68
60089;BME280;45961;53.574;55.878;2022-12-07T02:05:40;102797.66;;;-24.62;79.83
60089;BME280;45961;53.574;55.878;2022-12-07T02:06:42;102798.78;;;-24.56;79.54
60089;BME280;45961;53.574;55.878;2022-12-07T02:07:47;102798.72;;;-24.52;79.70
60089;BME280;45961;53.574;55.878;2022-12-07T02:08:48;102800.03;;;-24.58;79.64
60089;BME280;45961;53.574;55.878;2022-12-07T02:09:49;102803.13;;;-24.59;79.71
60089;BME280;45961;53.574;55.878;2022-12-07T02:10:50;102798.25;;;-24.59;79.67
60089;BME280;45961;53.574;55.878;2022-12-07T02:11:51;102801.28;;;-24.60;79.55
60089;BME280;45961;53.574;55.878;2022-12-07T02:12:56;102796.69;;;-24.58;79.33
60089;BME280;45961;53.574;55.878;2022-12-07T02:13:58;102797.59;;;-24.58;79.36
60089;BME280;45961;53.574;55.878;2022-12-07T02:15:02;102801.00;;;-24.61;79.28
60089;BME280;45961;53.574;55.878;2022-12-07T02:16:28;102803.72;;;-24.60;79.14
60089;BME280;45961;53.574;55.878;2022-12-07T02:17:44;102816.59;;;-24.61;79.38
60089;BME280;45961;53.574;55.878;2022-12-07T02:19:01;102835.50;;;-24.60;79.07
60089;BME280;45961;53.574;55.878;2022-12-07T02:20:13;102804.78;;;-24.46;79.01
60089;BME280;45961;53.574;55.878;2022-12-07T02:25:08;102817.28;;;-24.66;78.73
60089;BME280;45961;53.574;55.878;2022-12-07T02:27:46;102810.16;;;-24.60;78.59
60089;BME280;45961;53.574;55.878;2022-12-07T02:29:19;102809.88;;;-24.62;78.39
60089;BME280;45961;53.574;55.878;2022-12-07T02:30:23;102769.50;;;-24.82;78.54
60089;BME280;45961;53.574;55.878;2022-12-07T02:31:30;102805.53;;;-24.55;78.57
60089;BME280;45961;53.574;55.878;2022-12-07T02:32:51;102807.97;;;-24.55;78.19
60089;BME280;45961;53.574;55.878;2022-12-07T02:34:07;102805.94;;;-24.65;78.26
60089;BME280;45961;53.574;55.878;2022-12-07T02:35:15;102809.19;;;-24.57;78.12
60089;BME280;45961;53.574;55.878;2022-12-07T02:36:27;102773.44;;;-24.78;78.02
60089;BME280;45961;53.574;55.878;2022-12-07T02:38:55;102808.66;;;-24.64;78.00
60089;BME280;45961;53.574;55.878;2022-12-07T02:40:51;102802.88;;;-24.64;78.11
60089;BME280;45961;53.574;55.878;2022-12-07T02:41:40;102801.34;;;-24.64;78.27
60089;BME280;45961;53.574;55.878;2022-12-07T02:42:47;102803.41;;;-24.57;78.34
60089;BME280;45961;53.574;55.878;2022-12-07T02:44:02;102799.78;;;-24.59;78.02
60089;BME280;45961;53.574;55.878;2022-12-07T02:45:06;102796.34;;;-24.56;78.24
60089;BME280;45961;53.574;55.878;2022-12-07T02:46:15;102798.06;;;-24.47;78.13
60089;BME280;45961;53.574;55.878;2022-12-07T02:47:21;102797.75;;;-24.48;78.10
60089;BME280;45961;53.574;55.878;2022-12-07T02:48:24;102791.44;;;-24.56;77.83
60089;BME280;45961;53.574;55.878;2022-12-07T02:49:27;102792.06;;;-24.57;78.17
60089;BME280;45961;53.574;55.878;2022-12-07T02:50:29;102784.50;;;-24.40;78.13
60089;BME280;45961;53.574;55.878;2022-12-07T02:51:50;102783.03;;;-24.44;77.84
60089;BME280;45961;53.574;55.878;2022-12-07T02:52:52;102763.81;;;-24.29;77.68
60089;BME280;45961;53.574;55.878;2022-12-07T02:53:53;102778.56;;;-24.33;77.80
60089;BME280;45961;53.574;55.878;2022-12-07T02:54:54;102782.63;;;-24.37;77.76
60089;BME280;45961;53.574;55.878;2022-12-07T02:55:55;102776.84;;;-24.38;77.68
60089;BME280;45961;53.574;55.878;2022-12-07T03:00:14;102777.47;;;-24.61;77.92
60089;BME280;45961;53.574;55.878;2022-12-07T03:03:00;102778.38;;;-24.60;77.72
60089;BME280;45961;53.574;55.878;2022-12-07T03:06:43;102785.03;;;-24.55;77.68
60089;BME280;45961;53.574;55.878;2022-12-07T03:09:32;102779.84;;;-24.57;77.57
60089;BME280;45961;53.574;55.878;2022-12-07T03:12:31;102776.44;;;-24.53;77.55
60089;BME280;45961;53.574;55.878;2022-12-07T03:14:52;102776.78;;;-24.56;77.42
60089;BME280;45961;53.574;55.878;2022-12-07T03:16:08;102784.47;;;-24.58;77.84
60089;BME280;45961;53.574;55.878;2022-12-07T03:17:14;102781.91;;;-24.50;77.73
60089;BME280;45961;53.574;55.878;2022-12-07T03:18:22;102790.41;;;-24.48;77.49
60089;BME280;45961;53.574;55.878;2022-12-07T03:19:26;102787.97;;;-24.48;77.64
60089;BME280;45961;53.574;55.878;2022-12-07T03:20:29;102787.97;;;-24.48;77.62
60089;BME280;45961;53.574;55.878;2022-12-07T03:21:41;102757.78;;;-24.75;77.38
60089;BME280;45961;53.574;55.878;2022-12-07T03:22:44;102788.59;;;-24.49;77.72
60089;BME280;45961;53.574;55.878;2022-12-07T03:23:52;102792.59;;;-24.50;77.79
60089;BME280;45961;53.574;55.878;2022-12-07T03:24:57;102771.72;;;-24.65;77.15
60089;BME280;45961;53.574;55.878;2022-12-07T03:26:00;102808.56;;;-24.56;77.24
60089;BME280;45961;53.574;55.878;2022-12-07T03:27:44;102802.38;;;-24.50;77.20
60089;BME280;45961;53.574;55.878;2022-12-07T03:28:48;102796.69;;;-24.58;77.47
60089;BME280;45961;53.574;55.878;2022-12-07T03:31:22;102811.00;;;-24.56;77.33
60089;BME280;45961;53.574;55.878;2022-12-07T03:32:37;102810.41;;;-24.55;76.89
60089;BME280;45961;53.574;55.878;2022-12-07T03:33:56;102800.78;;;-24.45;77.08
60089;BME280;45961;53.574;55.878;2022-12-07T03:35:11;102815.25;;;-24.51;76.99
60089;BME280;45961;53.574;55.878;2022-12-07T03:36:26;102807.09;;;-24.37;76.63
60089;BME280;45961;53.574;55.878;2022-12-07T03:37:40;102808.38;;;-24.39;76.80
60089;BME280;45961;53.574;55.878;2022-12-07T03:40:19;102806.03;;;-24.48;76.25
60089;BME280;45961;53.574;55.878;2022-12-07T03:41:29;102808.88;;;-24.54;76.20
60089;BME280;45961;53.574;55.878;2022-12-07T03:42:32;102801.03;;;-24.39;76.72
60089;BME280;45961;53.574;55.878;2022-12-07T03:43:34;102805.69;;;-24.45;76.43
60089;BME280;45961;53.574;55.878;2022-12-07T03:44:37;102817.22;;;-24.62;76.52
60089;BME280;45961;53.574;55.878;2022-12-07T03:45:43;102803.06;;;-24.55;76.66
60089;BME280;45961;53.574;55.878;2022-12-07T03:48:24;102804.19;;;-24.49;76.66
60089;BME280;45961;53.574;55.878;2022-12-07T03:50:52;102804.13;;;-24.44;76.66
60089;BME280;45961;53.574;55.878;2022-12-07T03:52:08;102810.00;;;-24.48;76.92
60089;BME280;45961;53.574;55.878;2022-12-07T03:53:19;102800.94;;;-24.57;76.70
60089;BME280;45961;53.574;55.878;2022-12-07T03:54:46;102812.06;;;-24.63;76.76
60089;BME280;45961;53.574;55.878;2022-12-07T03:55:49;102812.72;;;-24.68;76.96
60089;BME280;45961;53.574;55.878;2022-12-07T03:56:52;102810.78;;;-24.61;76.67
60089;BME280;45961;53.574;55.878;2022-12-07T03:57:58;102807.91;;;-24.51;76.92
60089;BME280;45961;53.574;55.878;2022-12-07T03:59:00;102815.13;;;-24.42;76.77
60089;BME280;45961;53.574;55.878;2022-12-07T04:00:04;102802.09;;;-24.51;76.99
60089;BME280;45961;53.574;55.878;2022-12-07T04:01:12;102817.81;;;-24.59;76.91
60089;BME280;45961;53.574;55.878;2022-12-07T04:02:16;102809.44;;;-24.51;76.80
60089;BME280;45961;53.574;55.878;2022-12-07T04:03:18;102794.75;;;-24.73;76.91
60089;BME280;45961;53.574;55.878;2022-12-07T04:04:19;102808.19;;;-24.49;76.94
60089;BME280;45961;53.574;55.878;2022-12-07T04:05:20;102818.28;;;-24.48;76.96
60089;BME280;45961;53.574;55.878;2022-12-07T04:06:21;102823.19;;;-24.52;76.83
60089;BME280;45961;53.574;55.878;2022-12-07T04:07:22;102828.06;;;-24.52;76.99
60089;BME280;45961;53.574;55.878;2022-12-07T04:08:23;102830.56;;;-24.56;76.62
60089;BME280;45961;53.574;55.878;2022-12-07T04:09:23;102819.13;;;-24.43;76.96
60089;BME280;45961;53.574;55.878;2022-12-07T04:10:24;102821.19;;;-24.40;76.76
60089;BME280;45961;53.574;55.878;2022-12-07T04:11:26;102825.94;;;-24.50;76.50
60089;BME280;45961;53.574;55.878;2022-12-07T04:12:27;102827.97;;;-24.65;76.40
60089;BME280;45961;53.574;55.878;2022-12-07T04:13:28;102820.69;;;-24.69;76.50
60089;BME280;45961;53.574;55.878;2022-12-07T04:14:29;102827.06;;;-24.66;76.22
60089;BME280;45961;53.574;55.878;2022-12-07T04:15:30;102821.16;;;-24.58;76.30
60089;BME280;45961;53.574;55.878;2022-12-07T04:16:33;102819.78;;;-24.70;76.45
60089;BME280;45961;53.574;55.878;2022-12-07T04:17:37;102828.00;;;-24.69;76.28
60089;BME280;45961;53.574;55.878;2022-12-07T04:18:39;102823.19;;;-24.74;76.09
60089;BME280;45961;53.574;55.878;2022-12-07T04:19:40;102807.16;;;-24.89;76.06
60089;BME280;45961;53.574;55.878;2022-12-07T04:20:40;102826.94;;;-24.80;75.91
60089;BME280;45961;53.574;55.878;2022-12-07T04:21:42;102820.78;;;-24.78;75.88
60089;BME280;45961;53.574;55.878;2022-12-07T04:22:44;102825.44;;;-24.83;76.06
60089;BME280;45961;53.574;55.878;2022-12-07T04:23:48;102824.28;;;-24.89;75.73
60089;BME280;45961;53.574;55.878;2022-12-07T04:24:49;102828.97;;;-24.73;75.88
60089;BME280;45961;53.574;55.878;2022-12-07T04:25:50;102822.00;;;-24.76;76.04
60089;BME280;45961;53.574;55.878;2022-12-07T04:26:51;102822.91;;;-24.75;75.79
60089;BME280;45961;53.574;55.878;2022-12-07T04:27:52;102826.88;;;-24.76;75.86
60089;BME280;45961;53.574;55.878;2022-12-07T04:28:52;102824.75;;;-24.78;76.09
60089;BME280;45961;53.574;55.878;2022-12-07T04:29:53;102822.38;;;-24.82;75.94
60089;BME280;45961;53.574;55.878;2022-12-07T04:30:56;102824.19;;;-24.81;76.08
60089;BME280;45961;53.574;55.878;2022-12-07T04:31:56;102829.88;;;-24.73;76.08
60089;BME280;45961;53.574;55.878;2022-12-07T04:33:00;102834.13;;;-24.67;75.75
60089;BME280;45961;53.574;55.878;2022-12-07T04:34:04;102833.13;;;-24.64;75.68
60089;BME280;45961;53.574;55.878;2022-12-07T04:35:05;102822.84;;;-24.71;75.79
60089;BME280;45961;53.574;55.878;2022-12-07T04:36:07;102836.25;;;-24.69;75.64
60089;BME280;45961;53.574;55.878;2022-12-07T04:37:08;102826.53;;;-24.73;75.62
60089;BME280;45961;53.574;55.878;2022-12-07T04:38:08;102833.53;;;-24.71;75.61
60089;BME280;45961;53.574;55.878;2022-12-07T04:39:21;102845.34;;;-24.64;75.24
60089;BME280;45961;53.574;55.878;2022-12-07T04:40:23;102835.56;;;-24.64;75.47
60089;BME280;45961;53.574;55.878;2022-12-07T04:41:24;102838.69;;;-24.69;75.08
60089;BME280;45961;53.574;55.878;2022-12-07T04:42:27;102832.06;;;-24.74;75.13
60089;BME280;45961;53.574;55.878;2022-12-07T04:43:28;102836.84;;;-24.66;75.00
60089;BME280;45961;53.574;55.878;2022-12-07T04:44:30;102843.59;;;-24.69;75.16
60089;BME280;45961;53.574;55.878;2022-12-07T04:45:32;102841.88;;;-24.78;74.74
60089;BME280;45961;53.574;55.878;2022-12-07T04:46:32;102839.19;;;-24.84;74.52
60089;BME280;45961;53.574;55.878;2022-12-07T04:47:33;102835.88;;;-24.88;74.48
60089;BME280;45961;53.574;55.878;2022-12-07T04:48:35;102840.06;;;-24.79;74.71
60089;BME280;45961;53.574;55.878;2022-12-07T04:49:36;102843.59;;;-24.69;74.31
60089;BME280;45961;53.574;55.878;2022-12-07T04:50:37;102835.19;;;-24.79;74.25
60089;BME280;45961;53.574;55.878;2022-12-07T04:51:39;102857.28;;;-24.87;74.21
60089;BME280;45961;53.574;55.878;2022-12-07T04:52:40;102850.16;;;-24.82;74.25
60089;BME280;45961;53.574;55.878;2022-12-07T04:53:41;102844.69;;;-24.85;74.05
60089;BME280;45961;53.574;55.878;2022-12-07T04:54:42;102848.03;;;-24.84;73.80
60089;BME280;45961;53.574;55.878;2022-12-07T04:55:44;102852.63;;;-24.82;73.52
60089;BME280;45961;53.574;55.878;2022-12-07T04:56:46;102841.59;;;-24.80;73.38
60089;BME280;45961;53.574;55.878;2022-12-07T04:57:47;102852.97;;;-24.88;73.25
60089;BME280;45961;53.574;55.878;2022-12-07T04:58:48;102846.28;;;-24.89;73.26
60089;BME280;45961;53.574;55.878;2022-12-07T04:59:49;102857.09;;;-25.01;73.21
60089;BME280;45961;53.574;55.878;2022-12-07T05:00:49;102855.16;;;-24.90;73.26
60089;BME280;45961;53.574;55.878;2022-12-07T05:01:54;102855.44;;;-24.88;73.41
60089;BME280;45961;53.574;55.878;2022-12-07T05:02:54;102857.66;;;-24.94;73.16
60089;BME280;45961;53.574;55.878;2022-12-07T05:03:58;102855.78;;;-24.91;73.24
60089;BME280;45961;53.574;55.878;2022-12-07T05:04:59;102846.81;;;-24.82;73.17
60089;BME280;45961;53.574;55.878;2022-12-07T05:05:59;102854.44;;;-24.81;73.33
60089;BME280;45961;53.574;55.878;2022-12-07T05:07:00;102849.69;;;-24.93;73.09
60089;BME280;45961;53.574;55.878;2022-12-07T05:08:03;102849.72;;;-24.97;73.33
60089;BME280;45961;53.574;55.878;2022-12-07T05:09:04;102858.69;;;-25.06;73.15
60089;BME280;45961;53.574;55.878;2022-12-07T05:10:06;102853.53;;;-25.07;72.81
60089;BME280;45961;53.574;55.878;2022-12-07T05:11:09;102843.69;;;-25.03;72.89
60089;BME280;45961;53.574;55.878;2022-12-07T05:12:10;102849.94;;;-25.13;72.94
60089;BME280;45961;53.574;55.878;2022-12-07T05:13:11;102846.69;;;-25.00;73.13
60089;BME280;45961;53.574;55.878;2022-12-07T05:14:20;102837.91;;;-25.04;73.49
60089;BME280;45961;53.574;55.878;2022-12-07T05:15:21;102849.13;;;-25.00;73.44
60089;BME280;45961;53.574;55.878;2022-12-07T05:16:21;102845.09;;;-24.91;73.32
60089;BME280;45961;53.574;55.878;2022-12-07T05:17:22;102848.72;;;-24.89;73.54
60089;BME280;45961;53.574;55.878;2022-12-07T05:18:23;102846.88;;;-24.86;73.48
60089;BME280;45961;53.574;55.878;2022-12-07T05:19:27;102851.53;;;-24.96;73.54
60089;BME280;45961;53.574;55.878;2022-12-07T05:20:28;102846.91;;;-24.90;73.35
60089;BME280;45961;53.574;55.878;2022-12-07T05:21:28;102849.69;;;-24.93;73.30
60089;BME280;45961;53.574;55.878;2022-12-07T05:22:29;102851.53;;;-24.96;73.23
60089;BME280;45961;53.574;55.878;2022-12-07T05:23:30;102857.41;;;-25.00;72.93
60089;BME280;45961;53.574;55.878;2022-12-07T05:24:31;102851.31;;;-25.02;73.30
60089;BME280;45961;53.574;55.878;2022-12-07T05:25:32;102857.59;;;-24.90;73.23
60089;BME280;45961;53.574;55.878;2022-12-07T05:26:33;102860.72;;;-24.95;73.20
60089;BME280;45961;53.574;55.878;2022-12-07T05:27:34;102869.81;;;-24.90;73.31
60089;BME280;45961;53.574;55.878;2022-12-07T05:28:35;102863.72;;;-24.92;73.47
60089;BME280;45961;53.574;55.878;2022-12-07T05:29:39;102857.88;;;-24.88;73.18
60089;BME280;45961;53.574;55.878;2022-12-07T05:30:40;102863.41;;;-24.89;73.24
60089;BME280;45961;53.574;55.878;2022-12-07T05:31:41;102865.50;;;-24.87;73.34
60089;BME280;45961;53.574;55.878;2022-12-07T05:32:42;102852.25;;;-24.75;73.48
60089;BME280;45961;53.574;55.878;2022-12-07T05:33:43;102864.56;;;-24.83;73.40
60089;BME280;45961;53.574;55.878;2022-12-07T05:34:47;102861.50;;;-24.82;73.81
60089;BME280;45961;53.574;55.878;2022-12-07T05:35:48;102862.13;;;-24.83;73.69
60089;BME280;45961;53.574;55.878;2022-12-07T05:36:51;102865.47;;;-24.83;74.22
60089;BME280;45961;53.574;55.878;2022-12-07T05:37:52;102865.50;;;-24.87;74.18
60089;BME280;45961;53.574;55.878;2022-12-07T05:38:53;102868.19;;;-24.81;74.41
60089;BME280;45961;53.574;55.878;2022-12-07T05:39:55;102874.53;;;-24.74;74.94
60089;BME280;45961;53.574;55.878;2022-12-07T05:40:59;102877.28;;;-24.76;75.07
60089;BME280;45961;53.574;55.878;2022-12-07T05:42:01;102872.78;;;-24.57;75.23
60089;BME280;45961;53.574;55.878;2022-12-07T05:43:18;102868.47;;;-24.54;75.48
60089;BME280;45961;53.574;55.878;2022-12-07T05:44:18;102875.38;;;-24.43;75.73
60089;BME280;45961;53.574;55.878;2022-12-07T05:45:19;102867.09;;;-24.39;75.76
60089;BME280;45961;53.574;55.878;2022-12-07T05:46:20;102879.81;;;-24.36;75.94
60089;BME280;45961;53.574;55.878;2022-12-07T05:47:21;102877.69;;;-24.35;76.03
60089;BME280;45961;53.574;55.878;2022-12-07T05:48:22;102879.78;;;-24.32;75.78
60089;BME280;45961;53.574;55.878;2022-12-07T05:49:23;102875.72;;;-24.46;75.92
60089;BME280;45961;53.574;55.878;2022-12-07T05:50:24;102879.50;;;-24.34;75.43
60089;BME280;45961;53.574;55.878;2022-12-07T05:51:34;102881.88;;;-24.48;75.02
60089;BME280;45961;53.574;55.878;2022-12-07T05:52:35;102878.72;;;-24.42;74.87